CheckWX is a tool to help pilots better visualize weather data.  It is not intended as a substitute for an official pre-flight weather briefing.

19:06:34 UTC

LFPN METAR
Toussus-le-Noble Airport
Toussus-le-Noble, France
Current

37 mins ago

LFPN 171830Z AUTO 19010KT 9999 BKN049 BKN060 OVC070 14/12 Q1010 TEMPO 20016G26KT 4000 SHRA BKN012 BKN020TCU
Observed
Oct-17 @ 18:30 UTC
Wind
  • 190° at 10 KTS
Visibility
10,000+ meters
Flight Rules
VFR
Cloud Levels
  • Broken at 4,900' AGL
  • Broken at 6,000' AGL
  • Overcast at 7,000' AGL
Temperature
14°C / 57°F
Dewpoint
12°C / 54°F
Humidity
88%
Altimeter
29.82" Hg
Pressure
1009.92 hPa
Previous

1 hour ago

LFPN 171800Z AUTO 18009KT 160V220 9999 FEW015/// BKN076/// BKN092/// ///TCU 14/12 Q1010 TEMPO 20016G26KT 4000 SHRA BKN012 BKN020TCU
Observed
Oct-17 @ 18:00 UTC
Wind
  • 180° at 9 KTS
Visibility
10,000+ meters
Flight Rules
VFR
Cloud Levels
  • Few at 1,500' AGL
  • Broken at 7,600' AGL
  • Broken at 9,200' AGL
Temperature
14°C / 57°F
Dewpoint
12°C / 54°F
Humidity
88%
Altimeter
29.82" Hg
Pressure
1009.92 hPa
Previous

2 hours ago

LFPN 171730Z AUTO 18009KT CAVOK 15/12 Q1010 TEMPO 20016G26KT 4000 SHRA BKN012 BKN020TCU
Observed
Oct-17 @ 17:30 UTC
Wind
  • 180° at 9 KTS
Visibility
10,000+ meters
Flight Rules
VFR
Cloud Levels
  • Clear skies
Temperature
15°C / 59°F
Dewpoint
12°C / 54°F
Humidity
82%
Altimeter
29.82" Hg
Pressure
1009.92 hPa